Time;durP1;ratioP1;P1;durP2;ratioP2;P2;SDS_P1;SDS_P2;PMS_P1;PMS_P2;Temp;Humidity;BMP_temperature;BMP_pressure;BME280_temperature;BME280_humidity;BME280_pressure;Samples;Min_cycle;Max_cycle;Signal;HPM_P1;HPM_P2
2023/10/04 00:00:20;;;;;;;7.93;1.70;;;;;;;-146.25;100.00;52305.34;2121932;27;37302;-65
2023/10/04 00:01:24;;;;;;;9.63;2.05;;;;;;;-146.25;100.00;52360.09;2122720;27;20171;-64
2023/10/04 00:02:26;;;;;;;8.00;2.08;;;;;;;-146.25;100.00;52360.09;2122206;27;35387;-64
2023/10/04 00:03:28;;;;;;;6.22;1.85;;;;;;;-146.25;100.00;52404.69;2121521;27;38350;-64
2023/10/04 00:04:34;;;;;;;9.30;1.42;;;;;;;-146.25;100.00;52364.13;2122237;27;34663;-64
2023/10/04 00:05:36;;;;;;;8.98;1.90;;;;;;;-146.25;100.00;52382.38;2122326;27;31390;-64
2023/10/04 00:06:41;;;;;;;6.05;1.95;;;;;;;-146.25;100.00;52347.91;2121419;27;37449;-64
2023/10/04 00:07:46;;;;;;;7.90;1.90;;;;;;;-146.25;100.00;52400.63;2121820;27;32692;-64
2023/10/04 00:08:48;;;;;;;8.50;1.65;;;;;;;-146.25;100.00;52354.00;2121808;27;28874;-64
2023/10/04 00:09:52;;;;;;;7.82;2.05;;;;;;;-146.25;100.00;52333.72;2122233;27;35558;-64
2023/10/04 00:10:54;;;;;;;9.90;2.10;;;;;;;-146.25;100.00;52400.63;2122903;27;20155;-65
2023/10/04 00:11:55;;;;;;;10.05;2.00;;;;;;;-146.25;100.00;52331.69;2122028;27;35566;-64
2023/10/04 00:13:00;;;;;;;11.77;2.30;;;;;;;-146.25;100.00;52317.50;2121610;27;34743;-65
2023/10/04 00:14:01;;;;;;;5.55;1.40;;;;;;;-146.25;100.00;52349.94;2122043;27;32135;-64
2023/10/04 00:15:12;;;;;;;7.40;1.85;;;;;;;-146.25;100.00;52347.91;2121485;27;37424;-64
2023/10/04 00:16:14;;;;;;;9.43;1.98;;;;;;;-146.25;100.00;52356.03;2123097;27;20052;-66
2023/10/04 00:17:18;;;;;;;8.93;1.77;;;;;;;-146.25;100.00;52299.25;2121878;27;36923;-65
2023/10/04 00:18:20;;;;;;;10.75;1.85;;;;;;;-146.25;100.00;52349.94;2122010;27;36038;-63
2023/10/04 00:19:22;;;;;;;7.40;1.70;;;;;;;-146.25;100.00;52370.22;2121736;27;33203;-66
2023/10/04 00:20:31;;;;;;;9.73;1.90;;;;;;;-146.25;100.00;52362.13;2121555;27;36508;-65
2023/10/04 00:21:33;;;;;;;7.13;2.08;;;;;;;-146.25;100.00;52343.88;2112645;28;35077;-65
2023/10/04 00:22:36;;;;;;;8.25;1.48;;;;;;;-146.25;100.00;52349.94;2115479;27;20043;-65
2023/10/04 00:23:39;;;;;;;7.63;1.48;;;;;;;-146.25;100.00;52343.88;2122685;27;20043;-64
2023/10/04 00:24:41;;;;;;;9.05;1.42;;;;;;;-146.25;100.00;52356.03;2122048;27;33073;-64
2023/10/04 00:25:43;;;;;;;11.13;2.13;;;;;;;-146.25;100.00;52356.03;2121611;27;34408;-64
2023/10/04 00:26:46;;;;;;;9.75;1.98;;;;;;;-146.25;100.00;52331.69;2113181;28;20112;-64
2023/10/04 00:27:52;;;;;;;11.85;2.10;;;;;;;-146.25;100.00;52374.28;2112299;27;34500;-64
2023/10/04 00:28:54;;;;;;;8.07;2.10;;;;;;;-146.25;100.00;52366.16;2113070;28;31081;-65
2023/10/04 00:29:56;;;;;;;6.70;1.73;;;;;;;-146.25;100.00;52366.16;2104450;28;24166;-65
2023/10/04 00:30:58;;;;;;;8.50;1.55;;;;;;;-146.25;100.00;52378.34;2112969;27;25143;-64
2023/10/04 00:32:03;;;;;;;6.82;1.50;;;;;;;-146.25;100.00;52366.16;2122328;27;31118;-64
2023/10/04 00:33:06;;;;;;;6.55;1.40;;;;;;;-146.25;100.00;52356.03;2122597;27;20883;-63
2023/10/04 00:34:08;;;;;;;8.05;1.50;;;;;;;-146.25;100.00;52347.91;2121620;27;32444;-64
2023/10/04 00:35:15;;;;;;;8.57;1.77;;;;;;;-146.25;100.00;52380.38;2121985;27;25875;-66
2023/10/04 00:36:20;;;;;;;10.02;1.80;;;;;;;-146.25;100.00;52370.22;2129534;27;31747;-64
2023/10/04 00:37:24;;;;;;;9.60;2.03;;;;;;;-146.25;100.00;52372.25;2129284;27;25093;-64
2023/10/04 00:38:27;;;;;;;6.90;1.42;;;;;;;-146.25;100.00;52376.31;2121410;27;30699;-64
2023/10/04 00:39:29;;;;;;;8.23;1.98;;;;;;;-146.25;100.00;52364.13;2121814;27;21080;-64
2023/10/04 00:40:33;;;;;;;8.15;1.70;;;;;;;-146.25;100.00;52351.97;2122459;27;20952;-65
2023/10/04 00:41:39;;;;;;;8.68;1.30;;;;;;;-146.25;100.00;52378.34;2122294;27;26041;-64
2023/10/04 00:42:41;;;;;;;7.75;1.48;;;;;;;-146.25;100.00;52370.22;2122276;27;30093;-64
2023/10/04 00:43:52;;;;;;;9.10;1.83;;;;;;;-146.25;100.00;52378.34;2112819;28;20227;-64
2023/10/04 00:44:56;;;;;;;4.75;1.38;;;;;;;-146.25;100.00;52351.97;2122445;27;28668;-65
2023/10/04 00:45:58;;;;;;;6.88;1.50;;;;;;;-146.25;100.00;52364.13;2129688;27;25815;-63
2023/10/04 00:47:00;;;;;;;5.93;1.77;;;;;;;-146.25;100.00;52372.25;2121280;27;34829;-65
2023/10/04 00:48:13;;;;;;;8.63;1.20;;;;;;;-146.25;100.00;52376.31;2121251;27;29286;-65
2023/10/04 00:49:15;;;;;;;5.63;1.30;;;;;;;-146.25;100.00;52390.50;2122861;27;21003;-65
2023/10/04 00:50:26;;;;;;;7.63;1.45;;;;;;;-146.25;100.00;52370.22;2112377;28;26879;-64
2023/10/04 00:51:35;;;;;;;6.20;1.48;;;;;;;-146.25;100.00;52386.44;2105777;28;26642;-65
2023/10/04 00:52:37;;;;;;;5.45;1.60;;;;;;;-146.25;100.00;52368.19;2114760;27;27241;-66
2023/10/04 00:53:40;;;;;;;5.75;0.93;;;;;;;-146.25;100.00;52390.50;2121813;27;30544;-62
2023/10/04 00:54:41;;;;;;;7.55;1.40;;;;;;;-146.25;100.00;52366.16;2122362;27;20178;-65
2023/10/04 00:55:44;;;;;;;5.90;1.33;;;;;;;-146.25;100.00;52323.59;2121608;27;28272;-65
2023/10/04 00:56:51;;;;;;;7.25;1.35;;;;;;;-146.25;100.00;52390.50;2112800;28;20048;-64
2023/10/04 00:57:56;;;;;;;7.05;1.30;;;;;;;-146.25;100.00;52378.34;2114069;27;22204;-64
2023/10/04 00:59:01;;;;;;;4.70;1.60;;;;;;;-146.25;100.00;52374.28;2121610;27;28469;-64
2023/10/04 01:00:09;;;;;;;7.88;1.48;;;;;;;-146.25;100.00;52388.47;2122383;27;20886;-63
2023/10/04 01:01:10;;;;;;;7.35;1.27;;;;;;;-146.25;100.00;52360.09;2111867;27;28573;-64
2023/10/04 01:02:13;;;;;;;9.75;1.35;;;;;;;-146.25;100.00;52374.28;2112379;27;30406;-64
2023/10/04 01:03:15;;;;;;;7.05;1.17;;;;;;;-146.25;100.00;52402.66;2121335;27;25027;-63
2023/10/04 01:04:17;;;;;;;5.97;1.25;;;;;;;-146.25;100.00;52351.97;2120905;27;36864;-65
2023/10/04 01:05:22;;;;;;;7.80;1.27;;;;;;;-146.25;100.00;52396.59;2120655;27;25034;-64
2023/10/04 01:06:25;;;;;;;7.38;1.20;;;;;;;-146.25;100.00;52398.59;2121346;27;37806;-64
2023/10/04 01:07:27;;;;;;;6.97;1.17;;;;;;;-146.25;100.00;52358.06;2121727;27;29093;-63
2023/10/04 01:08:29;;;;;;;6.38;1.15;;;;;;;-146.25;100.00;52343.88;2121956;27;29595;-64
2023/10/04 01:09:31;;;;;;;6.80;1.25;;;;;;;-146.25;100.00;52382.38;2112926;28;25635;-64
2023/10/04 01:10:36;;;;;;;6.10;1.20;;;;;;;-146.25;100.00;52337.78;2113145;27;24281;-64
2023/10/04 01:11:46;;;;;;;6.82;1.10;;;;;;;-146.25;100.00;52376.31;2122176;27;20789;-64
2023/10/04 01:12:52;;;;;;;8.93;1.52;;;;;;;-146.25;100.00;52335.75;2122115;27;28670;-64
2023/10/04 01:14:06;;;;;;;4.32;0.93;;;;;;;-146.25;100.00;52394.56;2121573;27;31017;-63
2023/10/04 01:16:45;;;;;;;7.90;1.38;;;;;;;-146.25;100.00;52311.44;2095495;28;28812;-65
2023/10/04 01:17:48;;;;;;;9.48;1.67;;;;;;;-146.25;100.00;52392.53;2113814;27;31518;-65
2023/10/04 01:18:50;;;;;;;8.07;1.15;;;;;;;-146.25;100.00;52343.88;2113149;27;20120;-64
2023/10/04 01:19:52;;;;;;;8.55;1.30;;;;;;;-146.25;100.00;52341.84;2113000;27;20036;-64
2023/10/04 01:20:55;;;;;;;5.97;1.33;;;;;;;-146.25;100.00;52372.25;2112368;28;30007;-63
2023/10/04 01:22:21;;;;;;;7.53;1.50;;;;;;;-146.25;100.00;52358.06;2121356;27;28478;-65
2023/10/04 01:23:23;;;;;;;10.48;1.60;;;;;;;-146.25;100.00;52366.16;2125187;27;34275;-64
2023/10/04 01:24:26;;;;;;;8.77;1.15;;;;;;;-146.25;100.00;52345.91;2121821;27;20112;-66
2023/10/04 01:25:30;;;;;;;7.93;1.80;;;;;;;-146.25;100.00;52374.28;2121575;27;24982;-65
2023/10/04 01:26:33;;;;;;;7.35;0.98;;;;;;;-146.25;100.00;52378.34;2122133;27;20040;-65
2023/10/04 01:27:38;;;;;;;6.60;1.40;;;;;;;-146.25;100.00;52372.25;2129513;27;27311;-65
2023/10/04 01:28:40;;;;;;;6.82;1.38;;;;;;;-146.25;100.00;52372.25;2129790;27;27620;-65
2023/10/04 01:29:42;;;;;;;8.95;1.42;;;;;;;-146.25;100.00;52349.94;2121698;27;27147;-64
2023/10/04 01:30:47;;;;;;;5.18;1.30;;;;;;;-146.25;100.00;52362.13;2122336;27;20170;-65
2023/10/04 01:31:48;;;;;;;5.72;1.45;;;;;;;-146.25;100.00;52368.19;2112395;28;33203;-64
2023/10/04 01:32:50;;;;;;;3.88;1.15;;;;;;;-146.25;100.00;52422.94;2113274;27;30992;-65
2023/10/04 01:33:52;;;;;;;5.72;1.40;;;;;;;-146.25;100.00;52360.09;2121861;27;24684;-65
2023/10/04 01:34:54;;;;;;;8.95;1.40;;;;;;;-146.25;100.00;52376.31;2112232;28;25575;-65
2023/10/04 01:35:56;;;;;;;7.18;1.30;;;;;;;-146.25;100.00;52351.97;2112941;27;20052;-64
2023/10/04 01:36:59;;;;;;;5.97;1.70;;;;;;;-146.25;100.00;52347.91;2121899;27;20871;-65
2023/10/04 01:38:01;;;;;;;5.68;1.40;;;;;;;-146.25;100.00;52362.13;2121491;27;33132;-65
2023/10/04 01:39:07;;;;;;;6.15;1.08;;;;;;;-146.25;100.00;52374.28;2113103;28;20037;-64
2023/10/04 01:40:13;;;;;;;7.95;1.40;;;;;;;-146.25;100.00;52341.84;2105038;28;20166;-66
2023/10/04 01:41:15;;;;;;;8.15;1.48;;;;;;;-146.25;100.00;52347.91;2105149;28;38368;-66
2023/10/04 01:42:20;;;;;;;5.40;1.42;;;;;;;-146.25;100.00;52362.13;2114171;27;20094;-66
2023/10/04 01:43:25;;;;;;;10.02;1.40;;;;;;;-146.25;100.00;52374.28;2121145;27;25469;-64
2023/10/04 01:44:27;;;;;;;5.47;1.77;;;;;;;-146.25;100.00;52323.59;2112667;28;22415;-66
2023/10/04 01:45:29;;;;;;;4.00;1.38;;;;;;;-146.25;100.00;52368.19;2113133;27;20045;-64
2023/10/04 01:46:31;;;;;;;7.07;1.55;;;;;;;-146.25;100.00;52358.06;2121905;27;28887;-65
2023/10/04 01:47:34;;;;;;;7.57;1.40;;;;;;;-146.25;100.00;52349.94;2112420;28;26942;-65
2023/10/04 01:48:36;;;;;;;7.93;1.30;;;;;;;-146.25;100.00;52388.47;2113348;27;20044;-65
2023/10/04 01:49:38;;;;;;;11.07;1.42;;;;;;;-146.25;100.00;52372.25;2121289;27;25853;-64
2023/10/04 01:50:39;;;;;;;5.82;1.30;;;;;;;-146.25;100.00;52356.03;2112251;28;31560;-65
2023/10/04 01:51:42;;;;;;;9.05;1.50;;;;;;;-146.25;100.00;52368.19;2104092;28;31867;-65
2023/10/04 01:52:45;;;;;;;7.25;1.40;;;;;;;-146.25;100.00;52364.13;2113065;27;31297;-64
2023/10/04 01:53:47;;;;;;;7.90;1.33;;;;;;;-146.25;100.00;52376.31;2112615;28;20812;-65
2023/10/04 01:54:51;;;;;;;9.55;1.45;;;;;;;-146.25;100.00;52343.88;2112348;27;32454;-65
2023/10/04 01:55:56;;;;;;;6.90;1.35;;;;;;;-146.25;100.00;52358.06;2121654;27;28872;-64
2023/10/04 01:56:58;;;;;;;7.68;1.15;;;;;;;-146.25;100.00;52331.69;2112261;28;21318;-65
2023/10/04 01:58:02;;;;;;;8.93;1.40;;;;;;;-146.25;100.00;52368.19;2112645;28;20057;-64
2023/10/04 01:59:05;;;;;;;9.55;2.03;;;;;;;-146.25;100.00;52356.03;2112429;27;26513;-65
2023/10/04 02:00:16;;;;;;;7.43;1.30;;;;;;;-146.25;100.00;52337.78;2120781;27;20051;-64
2023/10/04 02:01:18;;;;;;;6.15;1.60;;;;;;;-146.25;100.00;52358.06;2105058;28;30189;-65
2023/10/04 02:02:22;;;;;;;7.13;1.35;;;;;;;-146.25;100.00;52380.38;2112629;28;20911;-63
2023/10/04 02:03:27;;;;;;;6.82;1.13;;;;;;;-146.25;100.00;52368.19;2113394;28;26462;-64
2023/10/04 02:04:29;;;;;;;7.47;1.48;;;;;;;-146.25;100.00;52347.91;2103747;28;22351;-64
2023/10/04 02:05:37;;;;;;;9.93;1.50;;;;;;;-146.25;100.00;52347.91;2104327;28;24300;-64
2023/10/04 02:06:39;;;;;;;10.02;1.30;;;;;;;-146.25;100.00;52360.09;2111759;28;34205;-64
2023/10/04 02:07:44;;;;;;;6.13;1.10;;;;;;;-146.25;100.00;52368.19;2104078;28;21020;-65
2023/10/04 02:08:48;;;;;;;10.70;1.67;;;;;;;-146.25;100.00;52347.91;2104113;28;25567;-65
2023/10/04 02:09:53;;;;;;;10.70;1.58;;;;;;;-146.25;100.00;52347.91;2112853;28;27208;-64
2023/10/04 02:10:57;;;;;;;7.82;1.85;;;;;;;-146.25;100.00;52362.13;2112635;28;28563;-64
2023/10/04 02:12:04;;;;;;;8.45;1.30;;;;;;;-146.25;100.00;52390.50;2104041;28;20053;-64
2023/10/04 02:13:14;;;;;;;7.40;1.75;;;;;;;-146.25;100.00;52364.13;2096921;28;21000;-64
2023/10/04 02:14:18;;;;;;;7.40;1.23;;;;;;;-146.25;100.00;52354.00;2107336;28;20039;-64
2023/10/04 02:15:22;;;;;;;6.57;1.42;;;;;;;-146.25;100.00;52386.44;2114877;28;20933;-64
2023/10/04 02:16:23;;;;;;;7.35;1.55;;;;;;;-146.25;100.00;52362.13;2113485;28;26133;-63
2023/10/04 02:17:26;;;;;;;10.00;1.60;;;;;;;-146.25;100.00;52392.53;2114754;28;20059;-64
2023/10/04 02:18:28;;;;;;;6.32;1.40;;;;;;;-146.25;100.00;52360.09;2107040;27;29153;-65
2023/10/04 02:19:30;;;;;;;9.82;1.60;;;;;;;-146.25;100.00;52400.63;2114142;27;29002;-64
2023/10/04 02:20:33;;;;;;;6.97;1.45;;;;;;;-146.25;100.00;52384.41;2122900;27;29277;-65
2023/10/04 02:21:35;;;;;;;6.18;1.10;;;;;;;-146.25;100.00;52394.56;2113970;28;27383;-63
2023/10/04 02:22:37;;;;;;;12.27;2.67;;;;;;;-146.25;100.00;52374.28;2114653;27;20162;-65
2023/10/04 02:23:39;;;;;;;9.18;1.50;;;;;;;-146.25;100.00;52347.91;2122464;27;27015;-65
2023/10/04 02:24:41;;;;;;;10.02;1.50;;;;;;;-146.25;100.00;52362.13;2123047;27;22619;-66
2023/10/04 02:25:43;;;;;;;8.63;1.48;;;;;;;-146.25;100.00;52356.03;2122918;27;20028;-64
2023/10/04 02:26:45;;;;;;;8.27;1.77;;;;;;;-146.25;100.00;52380.38;2123129;27;20032;-66
2023/10/04 02:27:49;;;;;;;11.02;1.48;;;;;;;-146.25;100.00;52384.41;2122690;27;31034;-66
2023/10/04 02:28:53;;;;;;;10.43;1.40;;;;;;;-146.25;100.00;52364.13;2113742;28;30904;-64
2023/10/04 02:29:55;;;;;;;10.85;1.50;;;;;;;-146.25;100.00;52380.38;2114733;27;32812;-65
2023/10/04 02:30:57;;;;;;;7.68;1.45;;;;;;;-146.25;100.00;52378.34;2123421;27;20063;-65
2023/10/04 02:32:11;;;;;;;9.98;1.70;;;;;;;-146.25;100.00;52372.25;2113747;28;20927;-65
2023/10/04 02:33:14;;;;;;;10.77;1.48;;;;;;;-146.25;100.00;52358.06;2114804;27;28465;-64
2023/10/04 02:34:19;;;;;;;12.93;1.55;;;;;;;-146.25;100.00;52376.31;2113878;28;20051;-64
2023/10/04 02:35:33;;;;;;;9.23;1.40;;;;;;;-146.25;100.00;52412.81;2114303;27;20892;-64
2023/10/04 02:36:37;;;;;;;7.70;1.33;;;;;;;-146.25;100.00;52386.44;2114091;27;21183;-65
2023/10/04 02:37:42;;;;;;;6.65;1.77;;;;;;;-146.25;100.00;52354.00;2114032;27;20032;-65
2023/10/04 02:38:47;;;;;;;5.90;1.23;;;;;;;-146.25;100.00;52400.63;2130557;27;25880;-64
2023/10/04 02:39:49;;;;;;;5.32;1.20;;;;;;;-146.25;100.00;52360.09;2130294;27;26843;-64
2023/10/04 02:40:51;;;;;;;4.57;1.30;;;;;;;-146.25;100.00;52343.88;2123316;27;25010;-64
2023/10/04 02:41:53;;;;;;;10.65;1.38;;;;;;;-146.25;100.00;52406.72;2131214;27;27656;-64
2023/10/04 02:42:55;;;;;;;7.55;1.15;;;;;;;-146.25;100.00;52388.47;2131133;27;20047;-63
2023/10/04 02:43:58;;;;;;;7.43;1.13;;;;;;;-146.25;100.00;52374.28;2122640;27;20031;-65
2023/10/04 02:45:01;;;;;;;10.48;1.50;;;;;;;-146.25;100.00;52358.06;2123000;27;20874;-64
2023/10/04 02:46:03;;;;;;;7.07;1.35;;;;;;;-146.25;100.00;52384.41;2122869;27;20782;-65
2023/10/04 02:47:06;;;;;;;8.05;1.58;;;;;;;-146.25;100.00;52356.03;2122804;27;20165;-65
2023/10/04 02:48:11;;;;;;;11.45;1.70;;;;;;;-146.25;100.00;52386.44;2121981;27;20188;-66
2023/10/04 02:49:14;;;;;;;14.68;1.55;;;;;;;-146.25;100.00;52368.19;2114588;27;20898;-65
2023/10/04 02:50:17;;;;;;;9.07;1.40;;;;;;;-146.25;100.00;52396.59;2122703;27;26264;-68
2023/10/04 02:51:20;;;;;;;6.97;1.70;;;;;;;-146.25;100.00;52372.25;2113431;28;20267;-65
2023/10/04 02:52:22;;;;;;;8.35;2.28;;;;;;;-146.25;100.00;52406.72;2105617;28;20037;-64
2023/10/04 02:53:27;;;;;;;7.75;1.77;;;;;;;-146.25;100.00;52374.28;2105264;28;20048;-64
2023/10/04 02:54:31;;;;;;;7.95;1.55;;;;;;;-146.25;100.00;52404.69;2113591;28;20037;-65
2023/10/04 02:55:36;;;;;;;7.93;1.90;;;;;;;-146.25;100.00;52339.81;2105883;28;20035;-65
2023/10/04 02:56:45;;;;;;;9.57;1.52;;;;;;;-146.25;100.00;52394.56;2105762;28;20096;-65
2023/10/04 02:57:52;;;;;;;10.75;1.85;;;;;;;-146.25;100.00;52372.25;2106553;28;20051;-65
2023/10/04 02:58:53;;;;;;;7.18;1.55;;;;;;;-146.25;100.00;52347.91;2105841;28;20057;-66
2023/10/04 02:59:59;;;;;;;8.75;1.42;;;;;;;-146.25;100.00;52354.00;2105554;28;20068;-64
2023/10/04 03:01:00;;;;;;;8.63;1.40;;;;;;;-146.25;100.00;52335.75;2112782;27;26495;-66
2023/10/04 03:02:03;;;;;;;11.40;1.65;;;;;;;-146.25;100.00;52360.09;2113296;28;25231;-66
2023/10/04 03:03:05;;;;;;;10.80;1.40;;;;;;;-146.25;100.00;52380.38;2113895;28;20163;-64
2023/10/04 03:04:09;;;;;;;8.43;1.17;;;;;;;-146.25;100.00;52386.44;2097104;28;20037;-65
2023/10/04 03:05:14;;;;;;;3.50;1.17;;;;;;;-146.25;100.00;52372.25;2104961;28;20100;-64
2023/10/04 03:06:16;;;;;;;10.57;1.40;;;;;;;-146.25;100.00;52378.34;2097777;28;20175;-64
2023/10/04 03:07:19;;;;;;;12.38;1.75;;;;;;;-146.25;100.00;52370.22;2104957;28;20522;-63
2023/10/04 03:08:21;;;;;;;9.15;1.50;;;;;;;-146.25;100.00;52390.50;2113806;27;27999;-64
2023/10/04 03:09:24;;;;;;;7.70;1.60;;;;;;;-146.25;100.00;52354.00;2112917;28;20910;-64
2023/10/04 03:10:33;;;;;;;9.55;1.50;;;;;;;-146.25;100.00;52388.47;2105534;28;20044;-66
2023/10/04 03:11:37;;;;;;;7.90;1.60;;;;;;;-146.25;100.00;52372.25;2114000;28;20198;-64
2023/10/04 03:12:41;;;;;;;7.85;1.17;;;;;;;-146.25;100.00;52374.28;2113704;28;20044;-64
2023/10/04 03:13:44;;;;;;;7.13;1.45;;;;;;;-146.25;100.00;52384.41;2114462;28;20051;-64
2023/10/04 03:14:46;;;;;;;10.13;1.40;;;;;;;-146.25;100.00;52374.28;2114559;28;20152;-66
2023/10/04 03:15:50;;;;;;;11.10;1.42;;;;;;;-146.25;100.00;52382.38;2114424;28;20032;-65
2023/10/04 03:16:52;;;;;;;9.98;1.67;;;;;;;-146.25;100.00;52384.41;2122392;27;20098;-64
2023/10/04 03:18:02;;;;;;;11.57;1.50;;;;;;;-146.25;100.00;52372.25;2113285;27;20144;-65
2023/10/04 03:19:06;;;;;;;11.05;1.30;;;;;;;-146.25;100.00;52384.41;2112654;27;20171;-64
2023/10/04 03:20:19;;;;;;;11.82;1.40;;;;;;;-146.25;100.00;52345.91;2113507;28;21007;-64
2023/10/04 03:21:26;;;;;;;8.18;1.67;;;;;;;-146.25;100.00;52386.44;2105192;28;20053;-66
2023/10/04 03:22:29;;;;;;;8.18;1.73;;;;;;;-146.25;100.00;52354.00;2097422;28;20037;-65
2023/10/04 03:23:35;;;;;;;7.15;1.17;;;;;;;-146.25;100.00;52378.34;2105153;28;20076;-64
2023/10/04 03:24:41;;;;;;;12.35;1.75;;;;;;;-146.25;100.00;52364.13;2105089;28;20126;-66
2023/10/04 03:25:43;;;;;;;8.70;1.45;;;;;;;-146.25;100.00;52360.09;2105621;28;20071;-65
2023/10/04 03:26:47;;;;;;;11.73;1.25;;;;;;;-146.25;100.00;52382.38;2113793;28;20044;-64
2023/10/04 03:27:52;;;;;;;12.40;1.67;;;;;;;-146.25;100.00;52378.34;2105378;28;20941;-65
2023/10/04 03:28:54;;;;;;;9.10;1.83;;;;;;;-146.25;100.00;52414.84;2105406;28;20045;-64
2023/10/04 03:30:06;;;;;;;10.43;1.50;;;;;;;-146.25;100.00;52414.84;2105217;28;20942;-67
2023/10/04 03:31:14;;;;;;;9.10;1.20;;;;;;;-146.25;100.00;52351.97;2106060;28;20076;-66
2023/10/04 03:32:18;;;;;;;8.30;1.15;;;;;;;-146.25;100.00;52408.75;2105896;28;20037;-66
2023/10/04 03:33:20;;;;;;;8.95;1.58;;;;;;;-146.25;100.00;52351.97;2105599;28;20036;-65
2023/10/04 03:34:22;;;;;;;7.55;1.33;;;;;;;-146.25;100.00;52404.69;2113454;27;20901;-65
2023/10/04 03:35:26;;;;;;;10.50;1.45;;;;;;;-146.25;100.00;52390.50;2112812;28;20032;-66
2023/10/04 03:36:34;;;;;;;12.65;1.85;;;;;;;-146.25;100.00;52416.84;2105401;28;20044;-66
2023/10/04 03:37:44;;;;;;;14.32;2.03;;;;;;;-146.25;100.00;52376.31;2113247;28;20048;-66
2023/10/04 03:38:49;;;;;;;12.40;1.50;;;;;;;-146.25;100.00;52382.38;2106091;28;20060;-65
2023/10/04 03:39:54;;;;;;;10.55;1.77;;;;;;;-146.25;100.00;52388.47;2105305;28;20134;-65
2023/10/04 03:40:56;;;;;;;9.82;1.80;;;;;;;-146.25;100.00;52402.66;2097269;28;20080;-64
2023/10/04 03:41:59;;;;;;;11.88;1.80;;;;;;;-146.25;100.00;52360.09;2097339;28;20041;-64
2023/10/04 03:43:06;;;;;;;9.90;1.55;;;;;;;-146.25;100.00;52386.44;2105306;28;20039;-65
2023/10/04 03:44:09;;;;;;;8.43;1.48;;;;;;;-146.25;100.00;52366.16;2105855;28;20117;-65
2023/10/04 03:45:17;;;;;;;8.20;1.30;;;;;;;-146.25;100.00;52390.50;2113593;28;20032;-65
2023/10/04 03:46:22;;;;;;;12.50;1.63;;;;;;;-146.25;100.00;52376.31;2105861;28;20148;-65
2023/10/04 03:47:35;;;;;;;10.93;1.63;;;;;;;-146.25;100.00;52400.63;2106895;28;20893;-65
2023/10/04 03:48:38;;;;;;;5.60;1.33;;;;;;;-146.25;100.00;52372.25;2105250;28;20888;-65
2023/10/04 03:49:40;;;;;;;10.07;1.58;;;;;;;-146.25;100.00;52366.16;2096477;28;20980;-65
2023/10/04 03:50:47;;;;;;;10.73;1.45;;;;;;;-146.25;100.00;52396.59;2096528;28;20175;-64
2023/10/04 03:51:53;;;;;;;11.68;1.88;;;;;;;-146.25;100.00;52390.50;2104506;28;26664;-65
2023/10/04 03:52:59;;;;;;;7.30;1.33;;;;;;;-146.25;100.00;52368.19;2097687;28;20049;-64
2023/10/04 03:54:05;;;;;;;8.98;1.52;;;;;;;-146.25;100.00;52396.59;2097119;28;20041;-65
2023/10/04 03:55:10;;;;;;;5.95;1.83;;;;;;;-146.25;100.00;52394.56;2113231;28;20917;-64
2023/10/04 03:56:11;;;;;;;13.85;1.63;;;;;;;-146.25;100.00;52339.81;2113701;28;20079;-65
2023/10/04 03:57:13;;;;;;;9.55;1.40;;;;;;;-146.25;100.00;52380.38;2113428;28;20146;-64
2023/10/04 03:58:16;;;;;;;8.73;1.38;;;;;;;-146.25;100.00;52398.59;2122048;27;20055;-65
2023/10/04 03:59:18;;;;;;;12.90;1.75;;;;;;;-146.25;100.00;52410.78;2121303;27;24918;-64
2023/10/04 04:00:22;;;;;;;9.98;1.50;;;;;;;-146.25;100.00;52392.53;2121463;27;20087;-64
2023/10/04 04:01:27;;;;;;;12.98;1.83;;;;;;;-146.25;100.00;52364.13;2113393;28;20072;-63
2023/10/04 04:02:33;;;;;;;10.80;1.70;;;;;;;-146.25;100.00;52386.44;2105238;28;20040;-64
2023/10/04 04:03:35;;;;;;;9.95;1.13;;;;;;;-146.25;100.00;52372.25;2113049;28;24626;-64
2023/10/04 04:04:37;;;;;;;6.25;1.38;;;;;;;-146.25;100.00;52388.47;2104942;28;20079;-63
2023/10/04 04:05:41;;;;;;;10.10;1.67;;;;;;;-146.25;100.00;52380.38;2096004;28;20926;-63
2023/10/04 04:06:44;;;;;;;10.18;1.63;;;;;;;-146.25;100.00;52372.25;2105012;28;26230;-65
2023/10/04 04:07:48;;;;;;;13.70;1.77;;;;;;;-146.25;100.00;52339.81;2114180;27;20048;-65
2023/10/04 04:08:52;;;;;;;5.82;1.00;;;;;;;-146.25;100.00;52388.47;2113289;28;30239;-66
2023/10/04 04:09:56;;;;;;;8.90;1.48;;;;;;;-146.25;100.00;52390.50;2114017;27;20021;-65
2023/10/04 04:11:01;;;;;;;9.65;1.58;;;;;;;-146.25;100.00;52374.28;2113609;28;32182;-65
2023/10/04 04:12:05;;;;;;;6.03;1.58;;;;;;;-146.25;100.00;52394.56;2105314;28;20134;-65
2023/10/04 04:13:07;;;;;;;10.95;1.75;;;;;;;-146.25;100.00;52378.34;2105086;28;25678;-66
2023/10/04 04:14:10;;;;;;;6.75;1.23;;;;;;;-146.25;100.00;52380.38;2113843;28;20117;-65
2023/10/04 04:15:23;;;;;;;8.80;1.08;;;;;;;-146.25;100.00;52404.69;2114314;28;20117;-65
2023/10/04 04:16:25;;;;;;;10.45;1.73;;;;;;;-146.25;100.00;52356.03;2114144;27;20117;-65
2023/10/04 04:17:27;;;;;;;6.93;1.50;;;;;;;-146.25;100.00;52372.25;2113454;28;20044;-65
2023/10/04 04:18:32;;;;;;;11.48;1.58;;;;;;;-146.25;100.00;52349.94;2112938;27;20087;-65
2023/10/04 04:19:38;;;;;;;10.20;1.52;;;;;;;-146.25;100.00;52382.38;2121525;27;20133;-65
2023/10/04 04:20:41;;;;;;;10.32;1.50;;;;;;;-146.25;100.00;52396.59;2121131;27;20036;-65
2023/10/04 04:21:43;;;;;;;10.68;1.65;;;;;;;-146.25;100.00;52390.50;2096279;28;20912;-65
2023/10/04 04:22:50;;;;;;;13.40;1.40;;;;;;;-146.25;100.00;52386.44;2097696;28;20041;-65
2023/10/04 04:23:53;;;;;;;12.60;1.50;;;;;;;-146.25;100.00;52354.00;2104824;28;20810;-65
2023/10/04 04:24:56;;;;;;;11.73;1.75;;;;;;;-146.25;100.00;52360.09;2096592;28;20838;-66
2023/10/04 04:26:05;;;;;;;10.30;1.60;;;;;;;-146.25;100.00;52358.06;2096640;28;20045;-63
2023/10/04 04:27:07;;;;;;;10.93;1.55;;;;;;;-146.25;100.00;52433.06;2106095;28;20138;-65
2023/10/04 04:28:14;;;;;;;9.05;1.52;;;;;;;-146.25;100.00;52351.97;2111644;28;25547;-66
2023/10/04 04:29:17;;;;;;;8.23;1.70;;;;;;;-146.25;100.00;52380.38;2121947;27;20028;-66
2023/10/04 04:30:28;;;;;;;8.23;1.30;;;;;;;-146.25;100.00;52339.81;2112924;27;20040;-65
2023/10/04 04:31:30;;;;;;;10.63;1.35;;;;;;;-146.25;100.00;52388.47;2104553;28;20979;-63
2023/10/04 04:32:33;;;;;;;9.25;1.55;;;;;;;-146.25;100.00;52360.09;2096378;28;20045;-64
2023/10/04 04:33:34;;;;;;;9.27;1.50;;;;;;;-146.25;100.00;52386.44;2105044;28;20050;-63
2023/10/04 04:34:41;;;;;;;11.02;1.83;;;;;;;-146.25;100.00;52380.38;2104865;28;20091;-65
2023/10/04 04:36:49;;;;;;;6.78;1.30;;;;;;;-146.25;100.00;52380.38;2120568;27;20052;-65
2023/10/04 04:37:55;;;;;;;8.68;1.80;;;;;;;-146.25;100.00;52372.25;2121743;27;20096;-63
2023/10/04 04:38:57;;;;;;;10.07;1.38;;;;;;;-146.25;100.00;52349.94;2104715;28;20045;-64
2023/10/04 04:40:00;;;;;;;8.98;1.58;;;;;;;-146.25;100.00;52435.09;2096362;28;20044;-65
2023/10/04 04:41:11;;;;;;;10.80;1.60;;;;;;;-146.25;100.00;52427.00;2104894;28;20170;-65
2023/10/04 04:42:20;;;;;;;7.47;1.45;;;;;;;-146.25;100.00;52374.28;2104620;28;20894;-65
2023/10/04 04:43:35;;;;;;;10.57;1.95;;;;;;;-146.25;100.00;52400.63;2105965;28;20831;-64
2023/10/04 04:44:42;;;;;;;8.68;1.30;;;;;;;-146.25;100.00;52384.41;2112972;28;20044;-63
2023/10/04 04:45:51;;;;;;;10.73;1.75;;;;;;;-146.25;100.00;52356.03;2104137;28;22970;-64
2023/10/04 04:46:57;;;;;;;9.80;1.38;;;;;;;-146.25;100.00;52376.31;2097917;28;20993;-64
2023/10/04 04:48:00;;;;;;;12.30;1.67;;;;;;;-146.25;100.00;52339.81;2104917;28;20232;-64
2023/10/04 04:49:02;;;;;;;12.68;1.73;;;;;;;-146.25;100.00;52343.88;2111274;27;20246;-66
2023/10/04 04:50:06;;;;;;;9.00;1.58;;;;;;;-146.25;100.00;52376.31;2104425;28;20052;-65
2023/10/04 04:51:10;;;;;;;7.75;1.73;;;;;;;-146.25;100.00;52398.59;2104642;28;20037;-66
2023/10/04 04:52:19;;;;;;;11.27;1.83;;;;;;;-146.25;100.00;52368.19;2113633;28;21189;-65
2023/10/04 04:53:27;;;;;;;9.13;1.45;;;;;;;-146.25;100.00;52374.28;2104651;28;20046;-64